createdAt,value
2017-03-30T00:01:00.815Z,0
2017-03-30T00:02:09.577Z,0
2017-03-30T00:03:18.341Z,0
2017-03-30T00:04:27.405Z,0
2017-03-30T00:05:36.168Z,0
2017-03-30T00:06:44.930Z,0
2017-03-30T00:07:53.620Z,0
2017-03-30T00:09:02.619Z,0
2017-03-30T00:10:11.380Z,0
2017-03-30T00:11:20.759Z,0
2017-03-30T00:12:29.857Z,0
2017-03-30T00:13:38.624Z,0
2017-03-30T00:14:47.699Z,0
2017-03-30T00:15:56.698Z,0
2017-03-30T00:17:06.077Z,0
2017-03-30T00:18:14.849Z,0
2017-03-30T00:19:23.607Z,0
2017-03-30T00:20:32.371Z,0
2017-03-30T00:21:42.397Z,0
2017-03-30T00:22:51.157Z,0
2017-03-30T00:23:59.850Z,0
2017-03-30T00:25:08.922Z,0
2017-03-30T00:26:18.287Z,0
2017-03-30T00:27:27.658Z,0
2017-03-30T00:28:36.354Z,0
2017-03-30T00:29:45.421Z,0
2017-03-30T00:30:55.094Z,0
2017-03-30T00:32:03.790Z,0
2017-03-30T00:33:13.087Z,0
2017-03-30T00:34:21.840Z,0
2017-03-30T00:35:30.603Z,0
2017-03-30T00:36:39.362Z,0
2017-03-30T00:37:48.070Z,0
2017-03-30T00:38:56.834Z,0
2017-03-30T00:40:05.900Z,0
2017-03-30T00:41:14.662Z,0
2017-03-30T00:42:23.364Z,0
2017-03-30T00:43:32.059Z,0
2017-03-30T00:44:41.426Z,0
2017-03-30T00:45:50.491Z,0
2017-03-30T00:46:59.276Z,0
2017-03-30T00:48:08.044Z,0
2017-03-30T00:49:17.121Z,0
2017-03-30T00:50:26.184Z,0
2017-03-30T00:51:35.253Z,0
2017-03-30T00:52:44.017Z,0
2017-03-30T00:53:53.080Z,0
2017-03-30T00:55:02.044Z,0
2017-03-30T00:56:11.119Z,0
2017-03-30T00:57:19.879Z,0
2017-03-30T00:58:28.638Z,0
2017-03-30T00:59:37.330Z,0
2017-03-30T01:00:46.393Z,0
2017-03-30T01:01:55.164Z,0
2017-03-30T01:03:03.928Z,0
2017-03-30T01:04:12.693Z,0
2017-03-30T01:05:21.455Z,0
2017-03-30T01:06:30.421Z,0
2017-03-30T01:07:39.179Z,0
2017-03-30T01:08:47.939Z,0
2017-03-30T01:09:56.705Z,0
2017-03-30T01:11:05.471Z,0
2017-03-30T01:12:14.542Z,0
2017-03-30T01:13:23.303Z,0
2017-03-30T01:14:32.000Z,0
2017-03-30T01:15:41.071Z,0
2017-03-30T01:16:50.145Z,0
2017-03-30T01:17:58.841Z,0
2017-03-30T01:19:07.600Z,0
2017-03-30T01:20:16.662Z,0
2017-03-30T01:21:25.430Z,0
2017-03-30T01:22:34.189Z,0
2017-03-30T01:23:42.942Z,0
2017-03-30T01:24:52.342Z,0
2017-03-30T01:26:01.705Z,0
2017-03-30T01:27:10.467Z,0
2017-03-30T01:28:19.234Z,0
2017-03-30T01:29:27.992Z,0
2017-03-30T01:30:36.756Z,0
2017-03-30T01:31:45.753Z,0
2017-03-30T01:32:54.495Z,0
2017-03-30T01:34:03.262Z,0
2017-03-30T01:35:12.348Z,0
2017-03-30T01:36:21.110Z,0
2017-03-30T01:37:29.896Z,0
2017-03-30T01:38:38.967Z,0
2017-03-30T01:39:47.729Z,0
2017-03-30T01:40:56.496Z,0
2017-03-30T01:42:05.256Z,0
2017-03-30T01:43:14.016Z,0
2017-03-30T01:44:22.776Z,0
2017-03-30T01:45:31.846Z,0
2017-03-30T01:46:40.602Z,0
2017-03-30T01:47:49.660Z,0
2017-03-30T01:48:58.421Z,0
2017-03-30T01:50:07.494Z,0
2017-03-30T01:51:16.560Z,0
2017-03-30T01:52:25.327Z,0
2017-03-30T01:53:34.291Z,0
2017-03-30T01:54:43.294Z,0
2017-03-30T01:55:52.044Z,0
2017-03-30T01:57:00.807Z,0
2017-03-30T01:58:10.171Z,0
2017-03-30T01:59:19.230Z,0
2017-03-30T02:00:27.989Z,0
2017-03-30T02:01:36.683Z,0
2017-03-30T02:02:45.451Z,0
2017-03-30T02:03:54.211Z,0
2017-03-30T02:05:02.967Z,0
2017-03-30T02:06:11.670Z,0
2017-03-30T02:07:20.731Z,0
2017-03-30T02:08:29.791Z,0
2017-03-30T02:09:38.857Z,0
2017-03-30T02:10:47.619Z,0
2017-03-30T02:11:56.405Z,0
2017-03-30T02:13:05.166Z,0
2017-03-30T02:14:13.857Z,0
2017-03-30T02:15:22.617Z,0
2017-03-30T02:16:38.642Z,0
2017-03-30T02:17:47.396Z,0
2017-03-30T02:18:56.465Z,0
2017-03-30T02:20:05.172Z,0
2017-03-30T02:21:13.933Z,0
2017-03-30T02:22:22.697Z,0
2017-03-30T02:23:31.451Z,0
2017-03-30T02:24:40.519Z,0
2017-03-30T02:25:49.984Z,0
2017-03-30T02:26:59.288Z,0
2017-03-30T02:28:08.055Z,0
2017-03-30T02:29:16.748Z,0
2017-03-30T02:30:25.510Z,0
2017-03-30T02:31:34.884Z,0
2017-03-30T02:32:43.952Z,0
2017-03-30T02:33:52.947Z,0
2017-03-30T02:35:02.553Z,0
2017-03-30T02:36:11.609Z,0
2017-03-30T02:37:20.613Z,0
2017-03-30T02:38:29.911Z,0
2017-03-30T02:39:39.284Z,0
2017-03-30T02:40:48.345Z,0
2017-03-30T02:41:57.414Z,0
2017-03-30T02:43:06.488Z,0
2017-03-30T02:44:15.553Z,0
2017-03-30T02:45:24.628Z,0
2017-03-30T02:46:33.998Z,0
2017-03-30T02:47:42.760Z,0
2017-03-30T02:48:51.515Z,0
2017-03-30T02:50:00.515Z,0
2017-03-30T02:51:09.275Z,0
2017-03-30T02:52:18.343Z,0
2017-03-30T02:53:27.102Z,0
2017-03-30T02:54:36.171Z,0
2017-03-30T02:55:45.233Z,0
2017-03-30T02:56:53.966Z,0
2017-03-30T02:58:03.541Z,0
2017-03-30T02:59:12.305Z,0
2017-03-30T03:00:21.071Z,0
2017-03-30T03:01:29.824Z,0
2017-03-30T03:02:38.891Z,0
2017-03-30T03:03:48.164Z,0
2017-03-30T03:04:57.202Z,0
2017-03-30T03:06:05.966Z,0
2017-03-30T03:07:14.659Z,0
2017-03-30T03:08:23.715Z,0
2017-03-30T03:09:32.477Z,0
2017-03-30T03:10:41.207Z,0
2017-03-30T03:11:49.968Z,0
2017-03-30T03:12:59.026Z,0
2017-03-30T03:14:07.786Z,0
2017-03-30T03:15:16.539Z,0
2017-03-30T03:16:25.603Z,0
2017-03-30T03:17:34.671Z,0
2017-03-30T03:18:43.669Z,0
2017-03-30T03:19:52.430Z,0
2017-03-30T03:21:01.425Z,0
2017-03-30T03:22:10.802Z,0
2017-03-30T03:23:20.108Z,0
2017-03-30T03:24:29.070Z,0
2017-03-30T03:25:37.832Z,0
2017-03-30T03:26:46.609Z,0
2017-03-30T03:27:55.309Z,0
2017-03-30T03:29:04.012Z,0
2017-03-30T03:30:13.014Z,0
2017-03-30T03:31:21.780Z,0
2017-03-30T03:32:30.840Z,0
2017-03-30T03:33:39.602Z,0
2017-03-30T03:34:48.573Z,0
2017-03-30T03:35:57.271Z,0
2017-03-30T03:37:06.390Z,0
2017-03-30T03:38:15.460Z,0
2017-03-30T03:39:24.454Z,0
2017-03-30T03:40:33.511Z,0
2017-03-30T03:41:42.281Z,0
2017-03-30T03:42:51.341Z,0
2017-03-30T03:44:00.095Z,0
2017-03-30T03:45:09.173Z,0
2017-03-30T03:46:17.962Z,0
2017-03-30T03:47:27.343Z,0
2017-03-30T03:48:36.051Z,0
2017-03-30T03:49:45.115Z,0
2017-03-30T03:50:53.877Z,0
2017-03-30T03:52:02.966Z,0
2017-03-30T03:53:11.732Z,0
2017-03-30T03:54:20.796Z,0
2017-03-30T03:55:29.868Z,0
2017-03-30T03:56:38.631Z,0
2017-03-30T03:57:48.020Z,0
2017-03-30T03:58:56.781Z,0
2017-03-30T04:00:05.498Z,0
2017-03-30T04:01:14.259Z,0
2017-03-30T04:02:23.210Z,0
2017-03-30T04:03:32.579Z,0
2017-03-30T04:04:41.346Z,0
2017-03-30T04:05:50.116Z,0
2017-03-30T04:06:58.879Z,0
2017-03-30T04:08:08.254Z,0
2017-03-30T04:09:16.976Z,0
2017-03-30T04:10:25.738Z,0
2017-03-30T04:11:34.807Z,0
2017-03-30T04:12:43.563Z,0
2017-03-30T04:13:52.326Z,0
2017-03-30T04:15:01.701Z,0
2017-03-30T04:16:11.386Z,0
2017-03-30T04:17:20.174Z,0
2017-03-30T04:18:29.549Z,0
2017-03-30T04:19:38.612Z,0
2017-03-30T04:20:47.382Z,0
2017-03-30T04:21:56.761Z,0
2017-03-30T04:23:05.827Z,0
2017-03-30T04:24:15.108Z,0
2017-03-30T04:25:24.175Z,0
2017-03-30T04:26:33.246Z,0
2017-03-30T04:27:42.006Z,0
2017-03-30T04:28:51.387Z,0
2017-03-30T04:30:00.082Z,0
2017-03-30T04:31:09.165Z,0
2017-03-30T04:32:17.871Z,0
2017-03-30T04:33:27.235Z,0
2017-03-30T04:34:35.999Z,0
2017-03-30T04:35:44.756Z,0
2017-03-30T04:36:53.532Z,0
2017-03-30T04:38:02.911Z,0
2017-03-30T04:39:11.605Z,0
2017-03-30T04:40:20.679Z,0
2017-03-30T04:41:29.744Z,0
2017-03-30T04:42:38.817Z,0
2017-03-30T04:43:47.812Z,0
2017-03-30T04:44:56.878Z,0
2017-03-30T04:46:05.616Z,0
2017-03-30T04:47:14.378Z,0
2017-03-30T04:48:23.143Z,0
2017-03-30T04:49:31.894Z,0
2017-03-30T04:50:40.667Z,0
2017-03-30T04:51:50.595Z,0
2017-03-30T04:52:59.673Z,0
2017-03-30T04:54:09.044Z,0
2017-03-30T04:55:17.811Z,0
2017-03-30T04:56:26.578Z,0
2017-03-30T04:57:35.640Z,0
2017-03-30T04:58:44.334Z,0
2017-03-30T04:59:53.102Z,0
2017-03-30T05:01:01.866Z,0
2017-03-30T05:02:10.935Z,0
2017-03-30T05:03:19.932Z,0
2017-03-30T05:04:29.003Z,0
2017-03-30T05:05:37.701Z,0
2017-03-30T05:06:46.465Z,0
2017-03-30T05:07:55.540Z,0
2017-03-30T05:09:04.918Z,0
2017-03-30T05:10:13.918Z,0
2017-03-30T05:11:22.679Z,0
2017-03-30T05:12:31.751Z,0
2017-03-30T05:13:40.823Z,0
2017-03-30T05:14:49.887Z,0
2017-03-30T05:15:58.587Z,0
2017-03-30T05:17:07.349Z,0
2017-03-30T05:18:16.416Z,0
2017-03-30T05:19:25.181Z,0
2017-03-30T05:20:34.558Z,0
2017-03-30T05:21:43.834Z,0
2017-03-30T05:22:52.907Z,0
2017-03-30T05:24:01.667Z,0
2017-03-30T05:25:11.041Z,0
2017-03-30T05:26:19.803Z,0
2017-03-30T05:27:28.818Z,0
2017-03-30T05:28:37.593Z,0
2017-03-30T05:29:46.561Z,0
2017-03-30T05:30:55.930Z,0
2017-03-30T05:32:04.700Z,0
2017-03-30T05:33:13.466Z,0
2017-03-30T05:34:22.543Z,0
2017-03-30T05:35:31.606Z,0
2017-03-30T05:36:40.369Z,0
2017-03-30T05:37:49.128Z,0
2017-03-30T05:38:58.442Z,0
2017-03-30T05:40:07.208Z,0
2017-03-30T05:41:16.573Z,5
2017-03-30T05:42:25.366Z,5
2017-03-30T05:43:34.061Z,5
2017-03-30T05:44:43.429Z,5
2017-03-30T05:45:52.193Z,5
2017-03-30T05:47:01.245Z,5
2017-03-30T05:48:09.939Z,5
2017-03-30T05:49:18.711Z,5
2017-03-30T05:50:27.470Z,5
2017-03-30T05:51:36.227Z,5
2017-03-30T05:52:44.992Z,10
2017-03-30T05:53:53.763Z,10
2017-03-30T05:55:02.529Z,10
2017-03-30T05:56:11.305Z,10
2017-03-30T05:57:20.671Z,10
2017-03-30T05:58:29.437Z,10
2017-03-30T05:59:38.508Z,10
2017-03-30T06:00:47.275Z,10
2017-03-30T06:01:56.652Z,10
2017-03-30T06:03:05.415Z,15
2017-03-30T06:04:14.179Z,20
2017-03-30T06:05:22.955Z,20
2017-03-30T06:06:31.726Z,15
2017-03-30T06:07:40.621Z,15
2017-03-30T06:08:49.389Z,15
2017-03-30T06:09:58.177Z,15
2017-03-30T06:11:07.254Z,15
2017-03-30T06:12:16.318Z,20
2017-03-30T06:13:25.220Z,15
2017-03-30T06:14:34.283Z,20
2017-03-30T06:15:43.027Z,15
2017-03-30T06:16:52.399Z,15
2017-03-30T06:18:01.094Z,15
2017-03-30T06:19:09.884Z,15
2017-03-30T06:20:18.653Z,25
2017-03-30T06:21:27.649Z,35
2017-03-30T06:22:36.417Z,35
2017-03-30T06:23:45.177Z,35
2017-03-30T06:24:53.931Z,35
2017-03-30T06:26:02.669Z,35
2017-03-30T06:27:11.424Z,35
2017-03-30T06:28:20.425Z,35
2017-03-30T06:29:29.485Z,35
2017-03-30T06:30:38.556Z,40
2017-03-30T06:31:47.612Z,40
2017-03-30T06:32:56.679Z,40
2017-03-30T06:34:05.449Z,40
2017-03-30T06:35:14.526Z,40
2017-03-30T06:36:23.578Z,40
2017-03-30T06:37:32.998Z,40
2017-03-30T06:38:41.755Z,45
2017-03-30T06:39:50.768Z,45
2017-03-30T06:40:59.483Z,45
2017-03-30T06:42:08.282Z,45
2017-03-30T06:43:17.043Z,45
2017-03-30T06:44:25.803Z,50
2017-03-30T06:45:34.572Z,50
2017-03-30T06:46:43.330Z,50
2017-03-30T06:47:52.591Z,50
2017-03-30T06:49:01.673Z,50
2017-03-30T06:50:10.741Z,40
2017-03-30T06:51:19.744Z,50
2017-03-30T06:52:29.108Z,55
2017-03-30T06:53:37.850Z,55
2017-03-30T06:54:47.175Z,60
2017-03-30T06:55:55.939Z,60
2017-03-30T06:57:04.937Z,40
2017-03-30T06:58:13.932Z,55
2017-03-30T06:59:22.686Z,65
2017-03-30T07:00:31.740Z,60
2017-03-30T07:01:40.437Z,60
2017-03-30T07:02:49.140Z,80
2017-03-30T07:03:58.226Z,80
2017-03-30T07:05:06.984Z,70
2017-03-30T07:06:15.748Z,75
2017-03-30T07:07:24.509Z,75
2017-03-30T07:08:33.275Z,100
2017-03-30T07:09:42.239Z,125
2017-03-30T07:10:51.628Z,190
2017-03-30T07:12:00.331Z,315
2017-03-30T07:13:09.097Z,160
2017-03-30T07:14:17.868Z,195
2017-03-30T07:15:26.639Z,280
2017-03-30T07:16:35.403Z,300
2017-03-30T07:17:44.162Z,145
2017-03-30T07:18:52.931Z,235
2017-03-30T07:20:01.945Z,300
2017-03-30T07:21:11.019Z,355
2017-03-30T07:22:19.782Z,305
2017-03-30T07:23:28.851Z,345
2017-03-30T07:24:37.919Z,295
2017-03-30T07:25:47.137Z,345
2017-03-30T07:26:55.858Z,370
2017-03-30T07:28:05.247Z,395
2017-03-30T07:29:14.288Z,355
2017-03-30T07:30:23.056Z,325
2017-03-30T07:31:31.818Z,205
2017-03-30T07:32:40.584Z,200
2017-03-30T07:33:49.398Z,260
2017-03-30T07:34:58.510Z,90
2017-03-30T07:36:07.240Z,130
2017-03-30T07:37:16.011Z,85
2017-03-30T07:38:25.086Z,130
2017-03-30T07:39:34.160Z,125
2017-03-30T07:40:42.853Z,125
2017-03-30T07:41:51.555Z,120
2017-03-30T07:43:00.625Z,115
2017-03-30T07:44:10.008Z,125
2017-03-30T07:45:18.783Z,125
2017-03-30T07:46:27.551Z,125
2017-03-30T07:47:36.616Z,125
2017-03-30T07:48:45.684Z,125
2017-03-30T07:49:54.753Z,125
2017-03-30T07:51:03.522Z,125
2017-03-30T07:52:12.292Z,130
2017-03-30T07:53:21.063Z,130
2017-03-30T07:54:30.126Z,130
2017-03-30T07:55:39.121Z,135
2017-03-30T07:56:47.879Z,145
2017-03-30T07:57:56.908Z,145
2017-03-30T07:59:05.978Z,120
2017-03-30T08:00:15.055Z,120
2017-03-30T08:01:23.821Z,110
2017-03-30T08:02:33.190Z,145
2017-03-30T08:03:41.965Z,125
2017-03-30T08:04:50.730Z,125
2017-03-30T08:05:59.693Z,115
2017-03-30T08:07:09.058Z,105
2017-03-30T08:08:18.147Z,120
2017-03-30T08:09:26.910Z,125
2017-03-30T08:10:36.277Z,105
2017-03-30T08:11:45.039Z,110
2017-03-30T08:12:53.807Z,140
2017-03-30T08:14:02.883Z,95
2017-03-30T08:15:12.251Z,110
2017-03-30T08:16:21.318Z,105
2017-03-30T08:17:30.381Z,150
2017-03-30T08:18:39.144Z,120
2017-03-30T08:19:47.957Z,110
2017-03-30T08:20:56.724Z,170
2017-03-30T08:22:06.004Z,105
2017-03-30T08:23:15.076Z,95
2017-03-30T08:24:23.838Z,90
2017-03-30T08:25:32.607Z,95
2017-03-30T08:26:41.367Z,155
2017-03-30T08:27:50.745Z,140
2017-03-30T08:28:59.827Z,160
2017-03-30T08:30:08.901Z,165
2017-03-30T08:31:17.958Z,130
2017-03-30T08:32:27.037Z,155
2017-03-30T08:33:36.102Z,135
2017-03-30T08:34:44.803Z,150
2017-03-30T08:35:53.879Z,160
2017-03-30T08:37:02.642Z,150
2017-03-30T08:38:11.335Z,90
2017-03-30T08:39:20.096Z,80
2017-03-30T08:40:28.864Z,75
2017-03-30T08:41:37.937Z,80
2017-03-30T08:42:47.005Z,75
2017-03-30T08:43:55.701Z,80
2017-03-30T08:45:05.082Z,85
2017-03-30T08:46:13.867Z,85
2017-03-30T08:47:22.640Z,80
2017-03-30T08:48:31.422Z,85
2017-03-30T08:49:40.802Z,95
2017-03-30T08:50:49.569Z,85
2017-03-30T08:51:58.635Z,70
2017-03-30T08:53:07.703Z,75
2017-03-30T08:54:16.760Z,100
2017-03-30T08:55:25.827Z,115
2017-03-30T08:56:34.896Z,130
2017-03-30T08:57:43.662Z,145
2017-03-30T08:58:52.780Z,145
2017-03-30T09:00:01.550Z,150
2017-03-30T09:01:10.513Z,150
2017-03-30T09:02:19.209Z,150
2017-03-30T09:03:28.273Z,185
2017-03-30T09:04:37.349Z,245
2017-03-30T09:05:46.719Z,275
2017-03-30T09:06:55.792Z,240
2017-03-30T09:08:05.603Z,340
2017-03-30T09:09:14.383Z,430
2017-03-30T09:10:23.157Z,295
2017-03-30T09:11:31.922Z,725
2017-03-30T09:12:40.695Z,300
2017-03-30T09:13:49.400Z,255
2017-03-30T09:14:58.466Z,425
2017-03-30T09:16:07.477Z,1020
2017-03-30T09:17:16.209Z,1125
2017-03-30T09:18:24.911Z,1175
2017-03-30T09:19:33.678Z,1185
2017-03-30T09:20:42.750Z,1180
2017-03-30T09:21:52.118Z,1225
2017-03-30T09:23:01.490Z,785
2017-03-30T09:24:10.557Z,1160
2017-03-30T09:25:19.329Z,1280
2017-03-30T09:26:28.401Z,1180
2017-03-30T09:27:37.173Z,1175
2017-03-30T09:28:46.245Z,1195
2017-03-30T09:29:55.360Z,1160
2017-03-30T09:31:04.058Z,1105
2017-03-30T09:32:13.441Z,1290
2017-03-30T09:33:22.138Z,1360
2017-03-30T09:34:30.896Z,1340
2017-03-30T09:35:39.970Z,1325
2017-03-30T09:36:49.241Z,1265
2017-03-30T09:37:58.313Z,1285
2017-03-30T09:39:07.384Z,1280
2017-03-30T09:40:16.452Z,1290
2017-03-30T09:41:25.528Z,1360
2017-03-30T09:42:34.293Z,1405
2017-03-30T09:43:43.292Z,1395
2017-03-30T09:44:52.318Z,1420
2017-03-30T09:46:01.095Z,1375
2017-03-30T09:47:10.171Z,1350
2017-03-30T09:48:18.907Z,1335
2017-03-30T09:49:27.674Z,1440
2017-03-30T09:50:36.751Z,1450
2017-03-30T09:51:45.454Z,1425
2017-03-30T09:52:54.455Z,1390
2017-03-30T09:54:03.521Z,1345
2017-03-30T09:55:12.291Z,1355
2017-03-30T09:56:20.990Z,1330
2017-03-30T09:57:29.721Z,1385
2017-03-30T09:58:39.094Z,1440
2017-03-30T09:59:48.576Z,1420
2017-03-30T10:00:57.652Z,1520
2017-03-30T10:02:06.650Z,1545
2017-03-30T10:03:15.428Z,1335
2017-03-30T10:04:24.492Z,1520
2017-03-30T10:05:33.518Z,1505
2017-03-30T10:06:42.253Z,1130
2017-03-30T10:07:51.621Z,640
2017-03-30T10:09:00.691Z,405
2017-03-30T10:10:09.469Z,385
2017-03-30T10:11:18.552Z,390
2017-03-30T10:12:27.319Z,400
2017-03-30T10:13:36.089Z,400
2017-03-30T10:14:44.789Z,405
2017-03-30T10:15:53.562Z,410
2017-03-30T10:17:02.568Z,415
2017-03-30T10:18:11.895Z,410
2017-03-30T10:19:20.661Z,395
2017-03-30T10:20:29.736Z,385
2017-03-30T10:21:38.494Z,380
2017-03-30T10:22:47.600Z,460
2017-03-30T10:23:56.366Z,625
2017-03-30T10:25:05.139Z,820
2017-03-30T10:26:14.195Z,1015
2017-03-30T10:27:22.961Z,1240
2017-03-30T10:28:31.727Z,1485
2017-03-30T10:29:40.793Z,1525
2017-03-30T10:30:50.173Z,1545
2017-03-30T10:31:59.854Z,1510
2017-03-30T10:33:08.618Z,1570
2017-03-30T10:34:17.390Z,1585
2017-03-30T10:35:26.158Z,1535
2017-03-30T10:36:35.446Z,1515
2017-03-30T10:37:44.145Z,1515
2017-03-30T10:38:53.263Z,1480
2017-03-30T10:40:02.666Z,1480
2017-03-30T10:41:11.670Z,1480
2017-03-30T10:42:20.673Z,1480
2017-03-30T10:43:29.466Z,1535
2017-03-30T10:44:38.531Z,1500
2017-03-30T10:45:47.297Z,1565
2017-03-30T10:46:56.008Z,1570
2017-03-30T10:48:05.087Z,1625
2017-03-30T10:49:13.793Z,1565
2017-03-30T10:50:22.863Z,1580
2017-03-30T10:51:32.067Z,1565
2017-03-30T10:52:40.771Z,1565
2017-03-30T10:53:49.842Z,1550
2017-03-30T10:54:58.614Z,1570
2017-03-30T10:56:07.316Z,1570
2017-03-30T10:57:16.331Z,1530
2017-03-30T10:58:25.092Z,1375
2017-03-30T10:59:33.873Z,1415
2017-03-30T11:00:42.892Z,1415
2017-03-30T11:01:51.861Z,1425
2017-03-30T11:03:00.628Z,1400
2017-03-30T11:04:09.398Z,1500
2017-03-30T11:05:18.154Z,1540
2017-03-30T11:06:27.225Z,1470
2017-03-30T11:07:35.997Z,1490
2017-03-30T11:08:45.073Z,1480
2017-03-30T11:09:54.049Z,1465
2017-03-30T11:11:02.823Z,1405
2017-03-30T11:12:11.596Z,1410
2017-03-30T11:13:20.669Z,1515
2017-03-30T11:14:29.434Z,1570
2017-03-30T11:15:39.145Z,1050
2017-03-30T11:16:48.228Z,1570
2017-03-30T11:17:57.235Z,1575
2017-03-30T11:19:05.994Z,1535
2017-03-30T11:20:15.066Z,1420
2017-03-30T11:21:23.846Z,1380
2017-03-30T11:22:32.618Z,1290
2017-03-30T11:23:41.686Z,760
2017-03-30T11:24:50.761Z,470
2017-03-30T11:25:59.529Z,775
2017-03-30T11:27:08.236Z,930
2017-03-30T11:28:17.004Z,1410
2017-03-30T11:29:25.778Z,1505
2017-03-30T11:30:34.480Z,1470
2017-03-30T11:31:43.852Z,1530
2017-03-30T11:32:52.815Z,1585
2017-03-30T11:34:01.593Z,1610
2017-03-30T11:35:10.597Z,1560
2017-03-30T11:36:19.380Z,1350
2017-03-30T11:37:28.475Z,1565
2017-03-30T11:38:37.250Z,1595
2017-03-30T11:39:46.033Z,1615
2017-03-30T11:40:54.769Z,1610
2017-03-30T11:42:03.473Z,1450
2017-03-30T11:43:12.678Z,1575
2017-03-30T11:44:21.452Z,1525
2017-03-30T11:45:30.518Z,1450
2017-03-30T11:46:39.302Z,1485
2017-03-30T11:47:48.078Z,1565
2017-03-30T11:48:56.843Z,1665
2017-03-30T11:50:05.564Z,1685
2017-03-30T11:51:14.335Z,1550
2017-03-30T11:52:23.049Z,1495
2017-03-30T11:53:31.827Z,1490
2017-03-30T11:54:40.563Z,1450
2017-03-30T11:55:49.634Z,1460
2017-03-30T11:56:58.404Z,1520
2017-03-30T11:58:07.780Z,1545
2017-03-30T11:59:16.485Z,1445
2017-03-30T12:00:25.264Z,1405
2017-03-30T12:01:34.035Z,1390
2017-03-30T12:02:43.318Z,1345
2017-03-30T12:03:53.245Z,1345
2017-03-30T12:05:02.533Z,710
2017-03-30T12:06:11.307Z,245
2017-03-30T12:07:20.390Z,245
2017-03-30T12:08:29.156Z,200
2017-03-30T12:09:38.235Z,160
2017-03-30T12:10:47.616Z,140
2017-03-30T12:11:56.740Z,130
2017-03-30T12:13:05.512Z,125
2017-03-30T12:14:14.720Z,125
2017-03-30T12:15:23.797Z,90
2017-03-30T12:16:32.573Z,90
2017-03-30T12:17:41.344Z,150
2017-03-30T12:18:50.416Z,130
2017-03-30T12:19:59.185Z,120
2017-03-30T12:21:07.963Z,150
2017-03-30T12:22:17.041Z,130
2017-03-30T12:23:25.845Z,145
2017-03-30T12:24:35.128Z,125
2017-03-30T12:25:43.899Z,110
2017-03-30T12:26:52.726Z,100
2017-03-30T12:28:01.728Z,105
2017-03-30T12:29:10.502Z,110
2017-03-30T12:30:19.596Z,80
2017-03-30T12:31:28.373Z,65
2017-03-30T12:32:37.148Z,55
2017-03-30T12:33:45.915Z,60
2017-03-30T12:34:55.067Z,95
2017-03-30T12:36:04.075Z,105
2017-03-30T12:37:12.844Z,105
2017-03-30T12:38:21.614Z,120
2017-03-30T12:39:30.717Z,110
2017-03-30T12:40:39.483Z,80
2017-03-30T12:41:48.251Z,105
2017-03-30T12:42:57.296Z,85
2017-03-30T12:44:06.669Z,75
2017-03-30T12:45:15.666Z,65
2017-03-30T12:46:24.434Z,90
2017-03-30T12:47:33.203Z,85
2017-03-30T12:48:41.971Z,85
2017-03-30T12:49:50.719Z,85
2017-03-30T12:50:59.781Z,75
2017-03-30T12:52:08.550Z,65
2017-03-30T12:53:17.553Z,65
2017-03-30T12:54:26.329Z,70
2017-03-30T12:55:35.100Z,85
2017-03-30T12:56:43.814Z,100
2017-03-30T12:57:52.580Z,90
2017-03-30T12:59:01.342Z,90
2017-03-30T13:00:10.115Z,90
2017-03-30T13:01:18.878Z,85
2017-03-30T13:02:27.646Z,90
2017-03-30T13:03:36.424Z,85
2017-03-30T13:04:45.498Z,95
2017-03-30T13:05:54.570Z,95
2017-03-30T13:07:03.645Z,95
2017-03-30T13:08:12.720Z,95
2017-03-30T13:09:21.491Z,95
2017-03-30T13:10:30.263Z,90
2017-03-30T13:11:39.032Z,85
2017-03-30T13:12:47.727Z,75
2017-03-30T13:13:56.500Z,85
2017-03-30T13:15:05.262Z,65
2017-03-30T13:16:14.029Z,55
2017-03-30T13:17:23.105Z,45
2017-03-30T13:18:31.867Z,50
2017-03-30T13:19:40.943Z,60
2017-03-30T13:20:49.940Z,80
2017-03-30T13:21:59.239Z,100
2017-03-30T13:23:08.302Z,95
2017-03-30T13:24:17.067Z,90
2017-03-30T13:25:26.443Z,85
2017-03-30T13:26:35.213Z,80
2017-03-30T13:27:43.984Z,70
2017-03-30T13:28:52.685Z,55
2017-03-30T13:30:01.444Z,55
2017-03-30T13:31:10.213Z,55
2017-03-30T13:32:19.280Z,65
2017-03-30T13:33:28.046Z,70
2017-03-30T13:34:36.809Z,70
2017-03-30T13:35:46.392Z,55
2017-03-30T13:36:55.099Z,70
2017-03-30T13:38:03.872Z,80
2017-03-30T13:39:12.641Z,80
2017-03-30T13:40:21.644Z,75
2017-03-30T13:41:30.338Z,75
2017-03-30T13:42:39.422Z,80
2017-03-30T13:43:48.187Z,80
2017-03-30T13:44:57.250Z,80
2017-03-30T13:46:06.317Z,75
2017-03-30T13:47:15.397Z,65
2017-03-30T13:48:24.162Z,70
2017-03-30T13:49:32.926Z,55
2017-03-30T13:50:41.686Z,55
2017-03-30T13:51:50.447Z,60
2017-03-30T13:52:59.497Z,65
2017-03-30T13:54:08.570Z,70
2017-03-30T13:55:17.353Z,70
2017-03-30T13:56:26.111Z,70
2017-03-30T13:57:34.880Z,60
2017-03-30T13:58:43.874Z,50
2017-03-30T13:59:52.925Z,45
2017-03-30T14:01:01.685Z,40
2017-03-30T14:02:10.655Z,50
2017-03-30T14:03:19.419Z,55
2017-03-30T14:04:28.360Z,55
2017-03-30T14:05:37.128Z,50
2017-03-30T14:06:45.850Z,50
2017-03-30T14:07:54.608Z,55
2017-03-30T14:09:03.376Z,55
2017-03-30T14:10:12.138Z,65
2017-03-30T14:11:20.838Z,60
2017-03-30T14:12:30.110Z,65
2017-03-30T14:13:38.873Z,55
2017-03-30T14:14:47.573Z,50
2017-03-30T14:15:56.555Z,50
2017-03-30T14:17:05.319Z,45
2017-03-30T14:18:14.075Z,40
2017-03-30T14:19:22.848Z,35
2017-03-30T14:20:31.611Z,35
2017-03-30T14:21:40.702Z,35
2017-03-30T14:22:49.473Z,45
2017-03-30T14:23:58.238Z,45
2017-03-30T14:25:07.005Z,35
2017-03-30T14:26:15.714Z,40
2017-03-30T14:27:24.414Z,40
2017-03-30T14:28:33.491Z,45
2017-03-30T14:29:42.487Z,45
2017-03-30T14:30:51.452Z,45
2017-03-30T14:32:00.150Z,45
2017-03-30T14:33:08.914Z,50
2017-03-30T14:34:17.672Z,50
2017-03-30T14:35:26.437Z,55
2017-03-30T14:36:35.507Z,60
2017-03-30T14:37:44.283Z,60
2017-03-30T14:38:54.038Z,55
2017-03-30T14:40:03.100Z,55
2017-03-30T14:41:11.865Z,45
2017-03-30T14:42:20.624Z,40
2017-03-30T14:43:29.389Z,35
2017-03-30T14:44:38.706Z,40
2017-03-30T14:45:48.084Z,45
2017-03-30T14:46:57.152Z,45
2017-03-30T14:48:05.866Z,45
2017-03-30T14:49:14.633Z,45
2017-03-30T14:50:23.391Z,45
2017-03-30T14:51:32.464Z,40
2017-03-30T14:52:41.233Z,40
2017-03-30T14:53:49.999Z,40
2017-03-30T14:54:59.377Z,35
2017-03-30T14:56:08.071Z,35
2017-03-30T14:57:16.833Z,35
2017-03-30T14:58:25.591Z,35
2017-03-30T14:59:34.683Z,35
2017-03-30T15:00:43.442Z,40
2017-03-30T15:01:52.522Z,40
2017-03-30T15:03:01.287Z,40
2017-03-30T15:04:10.362Z,40
2017-03-30T15:05:19.422Z,40
2017-03-30T15:06:28.162Z,40
2017-03-30T15:07:36.930Z,40
2017-03-30T15:08:46.915Z,35
2017-03-30T15:09:56.340Z,30
2017-03-30T15:11:05.108Z,30
2017-03-30T15:12:13.866Z,40
2017-03-30T15:13:22.625Z,35
2017-03-30T15:14:31.380Z,40
2017-03-30T15:15:40.151Z,40
2017-03-30T15:16:48.907Z,40
2017-03-30T15:17:57.974Z,40
2017-03-30T15:19:06.739Z,40
2017-03-30T15:20:15.503Z,40
2017-03-30T15:21:24.268Z,35
2017-03-30T15:22:33.030Z,30
2017-03-30T15:23:41.798Z,25
2017-03-30T15:24:50.799Z,25
2017-03-30T15:25:59.796Z,30
2017-03-30T15:27:08.558Z,25
2017-03-30T15:28:17.324Z,25
2017-03-30T15:29:26.221Z,30
2017-03-30T15:30:35.288Z,30
2017-03-30T15:31:44.359Z,25
2017-03-30T15:32:53.060Z,25
2017-03-30T15:34:01.801Z,25
2017-03-30T15:35:10.866Z,25
2017-03-30T15:36:19.561Z,25
2017-03-30T15:37:28.319Z,25
2017-03-30T15:38:37.384Z,25
2017-03-30T15:39:46.145Z,25
2017-03-30T15:40:55.212Z,25
2017-03-30T15:42:04.286Z,25
2017-03-30T15:43:13.056Z,25
2017-03-30T15:44:21.830Z,30
2017-03-30T15:45:30.899Z,30
2017-03-30T15:46:39.667Z,30
2017-03-30T15:47:48.428Z,30
2017-03-30T15:48:57.183Z,30
2017-03-30T15:50:05.948Z,30
2017-03-30T15:51:14.642Z,30
2017-03-30T15:52:23.419Z,30
2017-03-30T15:53:32.492Z,25
2017-03-30T15:54:41.258Z,25
2017-03-30T15:55:50.027Z,25
2017-03-30T15:56:58.791Z,25
2017-03-30T15:58:07.487Z,25
2017-03-30T15:59:16.184Z,25
2017-03-30T16:00:24.948Z,25
2017-03-30T16:01:34.006Z,25
2017-03-30T16:02:42.770Z,25
2017-03-30T16:03:51.532Z,25
2017-03-30T16:05:00.904Z,25
2017-03-30T16:06:09.976Z,25
2017-03-30T16:07:18.677Z,25
2017-03-30T16:08:27.375Z,20
2017-03-30T16:09:36.383Z,20
2017-03-30T16:10:45.149Z,20
2017-03-30T16:11:53.910Z,20
2017-03-30T16:13:02.609Z,20
2017-03-30T16:14:11.370Z,20
2017-03-30T16:15:20.134Z,20
2017-03-30T16:16:28.901Z,20
2017-03-30T16:17:37.663Z,20
2017-03-30T16:18:46.417Z,20
2017-03-30T16:19:55.786Z,15